createdAt,value
2022-11-20T00:00:16.462Z,83.82
2022-11-20T00:02:42.767Z,83.56
2022-11-20T00:05:09.655Z,83.59
2022-11-20T00:07:35.959Z,83.36
2022-11-20T00:10:02.616Z,83.55
2022-11-20T00:12:28.906Z,83.51
2022-11-20T00:14:55.436Z,83.25
2022-11-20T00:17:21.757Z,83.37
2022-11-20T00:19:48.066Z,83.54
2022-11-20T00:22:15.030Z,84.00
2022-11-20T00:24:43.146Z,83.67
2022-11-20T00:27:09.706Z,83.26
2022-11-20T00:29:36.008Z,84.21
2022-11-20T00:32:02.313Z,84.13
2022-11-20T00:34:28.613Z,84.35
2022-11-20T00:36:54.905Z,83.82
2022-11-20T00:39:21.410Z,83.56
2022-11-20T00:41:47.938Z,83.84
2022-11-20T00:44:14.243Z,83.73
2022-11-20T00:46:40.614Z,83.80
2022-11-20T00:49:06.927Z,83.64
2022-11-20T00:51:33.242Z,83.93
2022-11-20T00:54:00.873Z,84.62
2022-11-20T00:56:27.262Z,84.46
2022-11-20T00:58:53.691Z,84.40
2022-11-20T01:01:25.819Z,84.29
2022-11-20T01:03:54.362Z,84.22
2022-11-20T01:06:24.146Z,84.27
2022-11-20T01:08:51.542Z,84.34
2022-11-20T01:11:20.758Z,84.02
2022-11-20T01:13:49.405Z,83.95
2022-11-20T01:16:18.538Z,84.03
2022-11-20T01:18:47.850Z,83.93
2022-11-20T01:21:23.141Z,84.67
2022-11-20T01:23:50.782Z,83.80
2022-11-20T01:26:20.238Z,84.03
2022-11-20T01:28:48.066Z,84.01
2022-11-20T01:31:27.790Z,84.26
2022-11-20T01:33:57.281Z,84.27
2022-11-20T01:36:25.185Z,84.37
2022-11-20T01:39:01.077Z,84.20
2022-11-20T01:41:49.119Z,83.88
2022-11-20T01:44:18.170Z,83.95
2022-11-20T01:47:06.238Z,83.82
2022-11-20T01:49:41.992Z,83.33
2022-11-20T01:52:22.606Z,83.69
2022-11-20T01:54:53.947Z,83.62
2022-11-20T01:57:22.306Z,83.68
2022-11-20T02:00:02.545Z,83.53
2022-11-20T02:02:29.127Z,83.62
2022-11-20T02:05:01.125Z,83.61
2022-11-20T02:07:27.669Z,83.47
2022-11-20T02:09:58.604Z,83.57
2022-11-20T02:12:43.944Z,83.53
2022-11-20T02:15:10.510Z,83.47
2022-11-20T02:17:36.829Z,84.00
2022-11-20T02:20:03.977Z,84.00
2022-11-20T02:22:37.779Z,84.51
2022-11-20T02:25:06.624Z,84.22
2022-11-20T02:27:32.945Z,84.05
2022-11-20T02:30:06.376Z,84.32
2022-11-20T02:32:35.553Z,83.92
2022-11-20T02:35:19.977Z,83.96
2022-11-20T02:37:49.735Z,83.84
2022-11-20T02:40:16.042Z,83.64
2022-11-20T02:42:42.356Z,83.73
2022-11-20T02:45:09.281Z,83.88
2022-11-20T02:47:35.657Z,84.12
2022-11-20T02:50:02.206Z,83.77
2022-11-20T02:52:28.514Z,84.26
2022-11-20T02:54:55.526Z,84.13
2022-11-20T02:57:21.834Z,83.68
2022-11-20T02:59:48.145Z,83.67
2022-11-20T03:02:14.445Z,83.51
2022-11-20T03:04:40.769Z,83.19
2022-11-20T03:07:08.773Z,83.52
2022-11-20T03:09:35.114Z,83.73
2022-11-20T03:12:01.447Z,83.91
2022-11-20T03:14:27.747Z,83.81
2022-11-20T03:16:54.046Z,83.72
2022-11-20T03:19:20.792Z,83.53
2022-11-20T03:21:47.390Z,83.23
2022-11-20T03:24:14.507Z,83.53
2022-11-20T03:26:41.517Z,83.50
2022-11-20T03:29:08.297Z,83.65
2022-11-20T03:31:38.315Z,83.47
2022-11-20T03:34:05.481Z,83.47
2022-11-20T03:36:31.827Z,83.54
2022-11-20T03:38:58.386Z,83.57
2022-11-20T03:41:30.190Z,83.88
2022-11-20T03:44:01.826Z,83.81
2022-11-20T03:46:29.643Z,83.78
2022-11-20T03:48:56.654Z,84.02
2022-11-20T03:51:27.888Z,84.03
2022-11-20T03:53:56.185Z,84.02
2022-11-20T03:56:29.132Z,84.23
2022-11-20T03:58:55.547Z,83.97
2022-11-20T04:01:24.176Z,83.70
2022-11-20T04:03:50.524Z,83.69
2022-11-20T04:06:22.841Z,83.68
2022-11-20T04:08:53.539Z,83.53
2022-11-20T04:11:25.941Z,83.45
2022-11-20T04:13:57.550Z,83.50
2022-11-20T04:16:25.794Z,83.87
2022-11-20T04:18:57.021Z,83.49
2022-11-20T04:21:24.013Z,83.50
2022-11-20T04:23:51.003Z,83.96
2022-11-20T04:26:17.546Z,84.08
2022-11-20T04:28:43.842Z,83.57
2022-11-20T04:31:19.201Z,83.46
2022-11-20T04:33:47.091Z,83.59
2022-11-20T04:36:14.973Z,83.62
2022-11-20T04:38:41.648Z,83.84
2022-11-20T04:41:10.691Z,84.01
2022-11-20T04:43:36.993Z,84.10
2022-11-20T04:46:03.354Z,83.90
2022-11-20T04:48:30.294Z,84.29
2022-11-20T04:50:57.227Z,84.58
2022-11-20T04:53:24.330Z,84.32
2022-11-20T04:55:50.660Z,84.30
2022-11-20T04:58:17.241Z,84.10
2022-11-20T05:00:43.631Z,84.20
2022-11-20T05:03:09.936Z,83.84
2022-11-20T05:05:36.254Z,83.81
2022-11-20T05:08:02.849Z,83.83
2022-11-20T05:10:29.298Z,83.57
2022-11-20T05:12:55.628Z,83.53
2022-11-20T05:15:22.094Z,83.14
2022-11-20T05:17:50.125Z,83.14
2022-11-20T05:20:16.693Z,83.16
2022-11-20T05:22:43.892Z,82.79
2022-11-20T05:25:11.005Z,83.28
2022-11-20T05:27:37.709Z,83.36
2022-11-20T05:30:07.890Z,84.13
2022-11-20T05:32:34.211Z,84.22
2022-11-20T05:35:00.522Z,84.37
2022-11-20T05:37:26.926Z,83.97
2022-11-20T05:39:53.220Z,83.85
2022-11-20T05:42:31.504Z,83.78
2022-11-20T05:45:02.222Z,83.72
2022-11-20T05:47:33.695Z,84.03
2022-11-20T05:50:00.226Z,84.14
2022-11-20T05:52:30.195Z,83.97
2022-11-20T05:54:56.794Z,83.86
2022-11-20T05:57:23.103Z,83.27
2022-11-20T05:59:49.448Z,83.44
2022-11-20T06:02:15.929Z,83.68
2022-11-20T06:04:42.328Z,83.62
2022-11-20T06:07:08.723Z,83.78
2022-11-20T06:09:35.119Z,83.46
2022-11-20T06:12:01.449Z,83.56
2022-11-20T06:14:27.874Z,83.13
2022-11-20T06:16:54.225Z,83.61
2022-11-20T06:19:20.714Z,83.92
2022-11-20T06:21:49.721Z,83.33
2022-11-20T06:24:16.544Z,83.47
2022-11-20T06:26:43.023Z,82.96
2022-11-20T06:29:09.410Z,82.95
2022-11-20T06:31:38.488Z,83.43
2022-11-20T06:34:07.049Z,83.37
2022-11-20T06:36:34.109Z,83.59
2022-11-20T06:39:01.090Z,83.52
2022-11-20T06:41:28.759Z,83.62
2022-11-20T06:43:55.409Z,83.43
2022-11-20T06:46:22.263Z,83.33
2022-11-20T06:48:50.032Z,83.58
2022-11-20T06:51:16.630Z,83.81
2022-11-20T06:53:42.978Z,83.47
2022-11-20T06:56:09.602Z,83.70
2022-11-20T06:58:37.063Z,84.12
2022-11-20T07:01:10.173Z,84.04
2022-11-20T07:03:36.711Z,83.96
2022-11-20T07:06:03.863Z,83.40
2022-11-20T07:08:30.568Z,83.62
2022-11-20T07:11:01.954Z,83.55
2022-11-20T07:13:29.569Z,83.97
2022-11-20T07:15:56.264Z,84.11
2022-11-20T07:18:22.607Z,84.12
2022-11-20T07:20:48.926Z,84.21
2022-11-20T07:23:15.329Z,83.72
2022-11-20T07:25:42.083Z,83.73
2022-11-20T07:28:08.422Z,84.24
2022-11-20T07:30:34.780Z,84.06
2022-11-20T07:33:01.126Z,83.83
2022-11-20T07:35:27.426Z,84.10
2022-11-20T07:37:53.793Z,84.41
2022-11-20T07:40:20.831Z,84.35
2022-11-20T07:42:55.378Z,84.53
2022-11-20T07:45:24.143Z,84.58
2022-11-20T07:47:51.196Z,84.63
2022-11-20T07:50:17.990Z,84.35
2022-11-20T07:52:44.609Z,84.49
2022-11-20T07:55:11.551Z,84.29
2022-11-20T07:57:38.288Z,84.31
2022-11-20T08:00:07.951Z,84.09
2022-11-20T08:02:34.256Z,83.65
2022-11-20T08:05:00.673Z,83.70
2022-11-20T08:07:27.044Z,83.92
2022-11-20T08:09:53.389Z,84.17
2022-11-20T08:12:40.798Z,84.13
2022-11-20T08:15:12.811Z,84.26
2022-11-20T08:17:39.794Z,84.15
2022-11-20T08:20:06.480Z,84.28
2022-11-20T08:22:32.797Z,84.72
2022-11-20T08:24:59.117Z,84.77
2022-11-20T08:27:25.457Z,84.36
2022-11-20T08:29:51.771Z,84.18
2022-11-20T08:32:18.068Z,84.34
2022-11-20T08:34:44.396Z,84.68
2022-11-20T08:37:10.740Z,84.76
2022-11-20T08:39:37.040Z,84.60
2022-11-20T08:42:03.506Z,84.86
2022-11-20T08:44:29.930Z,85.02
2022-11-20T08:46:56.229Z,85.32
2022-11-20T08:49:23.464Z,85.32
2022-11-20T08:51:52.606Z,85.49
2022-11-20T08:54:20.770Z,85.88
2022-11-20T08:56:47.085Z,85.71
2022-11-20T09:01:59.686Z,86.03
2022-11-20T09:04:25.978Z,86.14
2022-11-20T09:06:52.923Z,86.41
2022-11-20T09:09:19.896Z,86.42
2022-11-20T09:11:46.412Z,86.27
2022-11-20T09:14:12.718Z,86.71
2022-11-20T09:16:39.132Z,86.68
2022-11-20T09:19:35.147Z,86.66
2022-11-20T09:21:56.890Z,86.77
2022-11-20T09:24:25.814Z,86.74
2022-11-20T09:26:52.119Z,86.95
2022-11-20T09:29:19.239Z,86.85
2022-11-20T09:31:45.785Z,87.00
2022-11-20T09:34:12.097Z,86.71
2022-11-20T09:36:38.395Z,86.84
2022-11-20T09:39:04.770Z,86.92
2022-11-20T09:41:57.162Z,86.97
2022-11-20T09:44:54.436Z,86.90
2022-11-20T09:47:56.119Z,87.01
2022-11-20T09:50:25.589Z,86.86
2022-11-20T09:53:11.117Z,87.11
2022-11-20T09:55:38.205Z,87.03
2022-11-20T09:58:08.493Z,87.17
2022-11-20T10:00:37.786Z,86.78
2022-11-20T10:03:14.822Z,86.93
2022-11-20T10:05:51.342Z,86.79
2022-11-20T10:08:31.213Z,86.80
2022-11-20T10:11:22.918Z,86.77
2022-11-20T10:13:58.877Z,86.49
2022-11-20T10:16:44.532Z,86.20
2022-11-20T10:19:29.806Z,86.28
2022-11-20T10:22:20.251Z,86.30
2022-11-20T10:25:06.725Z,86.43
2022-11-20T10:27:39.702Z,86.17
2022-11-20T10:30:14.592Z,86.17
2022-11-20T10:32:44.299Z,85.93
2022-11-20T10:35:22.631Z,85.97
2022-11-20T10:38:06.163Z,85.77
2022-11-20T10:40:38.735Z,85.78
2022-11-20T10:43:24.495Z,85.98
2022-11-20T10:45:59.829Z,85.96
2022-11-20T10:48:28.131Z,86.18
2022-11-20T10:51:14.286Z,86.04
2022-11-20T10:53:51.918Z,86.35
2022-11-20T10:56:29.494Z,86.54
2022-11-20T10:59:03.458Z,86.51
2022-11-20T11:01:30.651Z,86.46
2022-11-20T11:03:58.103Z,86.61
2022-11-20T11:06:42.645Z,86.67
2022-11-20T11:09:17.917Z,86.38
2022-11-20T11:11:44.567Z,86.55
2022-11-20T11:14:16.136Z,86.82
2022-11-20T11:16:58.810Z,86.72
2022-11-20T11:19:25.792Z,86.74
2022-11-20T11:21:57.505Z,86.91
2022-11-20T11:24:44.965Z,87.15
2022-11-20T11:27:18.422Z,87.10
2022-11-20T11:29:45.856Z,87.23
2022-11-20T11:32:15.152Z,87.55
2022-11-20T11:34:41.609Z,87.63
2022-11-20T11:37:19.204Z,87.70
2022-11-20T11:39:55.120Z,87.85
2022-11-20T11:42:31.179Z,88.11
2022-11-20T11:45:06.155Z,88.03
2022-11-20T11:47:44.794Z,88.21
2022-11-20T11:50:11.061Z,88.09
2022-11-20T11:52:58.104Z,88.51
2022-11-20T11:55:32.103Z,88.48
2022-11-20T11:58:11.067Z,88.58
2022-11-20T12:00:42.194Z,88.88
2022-11-20T12:03:20.497Z,88.86
2022-11-20T12:05:57.975Z,89.01
2022-11-20T12:08:45.591Z,89.22
2022-11-20T12:11:31.571Z,89.28
2022-11-20T12:14:15.663Z,89.43
2022-11-20T12:16:42.132Z,89.42
2022-11-20T12:19:13.238Z,89.41
2022-11-20T12:22:18.656Z,89.47
2022-11-20T12:25:00.111Z,89.55
2022-11-20T12:27:45.477Z,89.64
2022-11-20T12:30:13.586Z,89.18
2022-11-20T12:33:13.452Z,89.79
2022-11-20T12:35:58.426Z,89.40
2022-11-20T12:38:27.791Z,89.52
2022-11-20T12:42:00.623Z,89.57
2022-11-20T12:45:04.334Z,89.85
2022-11-20T12:47:48.760Z,89.82
2022-11-20T12:50:42.813Z,89.91
2022-11-20T12:53:39.784Z,89.82
2022-11-20T12:56:40.254Z,90.29
2022-11-20T12:59:32.229Z,90.49
2022-11-20T13:02:36.933Z,90.47
2022-11-20T13:05:31.276Z,90.77
2022-11-20T13:07:58.803Z,90.63
2022-11-20T13:10:38.083Z,90.64
2022-11-20T13:13:14.494Z,90.67
2022-11-20T13:15:49.085Z,90.65
2022-11-20T13:18:16.101Z,90.80
2022-11-20T13:20:44.793Z,90.91
2022-11-20T13:23:11.455Z,90.83
2022-11-20T13:25:41.530Z,90.99
2022-11-20T13:28:10.850Z,91.08
2022-11-20T13:30:53.572Z,91.15
2022-11-20T13:33:35.911Z,91.16
2022-11-20T13:36:08.494Z,91.08
2022-11-20T13:38:47.937Z,91.14
2022-11-20T13:41:36.174Z,91.17
2022-11-20T13:44:16.116Z,91.06
2022-11-20T13:46:46.053Z,91.06
2022-11-20T13:49:34.036Z,91.05
2022-11-20T13:52:32.362Z,91.19
2022-11-20T13:55:12.371Z,91.01
2022-11-20T13:57:53.671Z,91.21
2022-11-20T14:00:21.451Z,91.04
2022-11-20T14:03:17.531Z,91.22
2022-11-20T14:05:54.960Z,91.23
2022-11-20T14:08:52.572Z,91.09
2022-11-20T14:11:20.269Z,91.20
2022-11-20T14:14:16.262Z,91.28
2022-11-20T14:16:44.083Z,91.34
2022-11-20T14:19:22.637Z,91.77
2022-11-20T14:22:07.471Z,91.76
2022-11-20T14:24:33.975Z,91.19
2022-11-20T14:27:00.501Z,91.69
2022-11-20T14:29:36.266Z,91.89
2022-11-20T14:32:04.052Z,91.86
2022-11-20T14:34:33.668Z,91.98
2022-11-20T14:37:02.697Z,91.89
2022-11-20T14:39:35.176Z,92.30
2022-11-20T14:42:02.146Z,92.16
2022-11-20T14:44:32.433Z,92.36
2022-11-20T14:47:02.694Z,92.61
2022-11-20T14:49:31.621Z,92.45
2022-11-20T14:52:13.775Z,92.47
2022-11-20T14:54:48.152Z,92.51
2022-11-20T14:57:29.952Z,92.59
2022-11-20T15:00:21.228Z,92.64
2022-11-20T15:02:50.087Z,92.59
2022-11-20T15:05:18.642Z,92.71
2022-11-20T15:08:05.209Z,92.74
2022-11-20T15:10:31.766Z,92.74
2022-11-20T15:13:12.455Z,92.61
2022-11-20T15:15:50.848Z,92.97
2022-11-20T15:18:27.927Z,92.99
2022-11-20T15:20:59.295Z,92.89
2022-11-20T15:23:27.330Z,92.77
2022-11-20T15:25:53.702Z,93.13
2022-11-20T15:28:26.146Z,92.99
2022-11-20T15:30:52.442Z,93.06
2022-11-20T15:33:19.954Z,93.05
2022-11-20T15:35:46.389Z,93.12
2022-11-20T15:38:12.866Z,93.21
2022-11-20T15:40:39.221Z,93.31
2022-11-20T15:43:12.546Z,93.35
2022-11-20T15:45:51.764Z,93.44
2022-11-20T15:48:25.430Z,93.45
2022-11-20T15:50:59.393Z,93.60
2022-11-20T15:53:25.774Z,93.64
2022-11-20T15:55:52.130Z,93.61
2022-11-20T15:58:18.466Z,93.61
2022-11-20T16:00:45.467Z,93.82
2022-11-20T16:03:15.810Z,93.74
2022-11-20T16:05:42.186Z,93.96
2022-11-20T16:08:11.465Z,93.79
2022-11-20T16:10:38.930Z,93.89
2022-11-20T16:13:25.163Z,94.02
2022-11-20T16:15:57.955Z,94.08
2022-11-20T16:18:24.254Z,94.08
2022-11-20T16:20:53.516Z,94.12
2022-11-20T16:23:21.082Z,94.20
2022-11-20T16:25:47.776Z,93.99
2022-11-20T16:28:18.609Z,94.31
2022-11-20T16:30:45.866Z,94.25
2022-11-20T16:33:14.266Z,94.22
2022-11-20T16:35:41.086Z,94.26
2022-11-20T16:38:07.534Z,94.22
2022-11-20T16:40:33.846Z,94.28
2022-11-20T16:43:11.684Z,94.38
2022-11-20T16:45:45.279Z,94.43
2022-11-20T16:48:17.447Z,94.46
2022-11-20T16:50:52.270Z,94.55
2022-11-20T16:53:22.734Z,94.58
2022-11-20T16:55:49.357Z,94.45
2022-11-20T16:58:16.325Z,94.42
2022-11-20T17:00:48.487Z,94.62
2022-11-20T17:03:17.972Z,94.48
2022-11-20T17:05:44.330Z,94.23
2022-11-20T17:08:10.627Z,94.64
2022-11-20T17:10:36.996Z,94.65
2022-11-20T17:13:03.286Z,94.57
2022-11-20T17:15:29.579Z,94.63
2022-11-20T17:17:55.893Z,94.70
2022-11-20T17:20:22.216Z,94.65
2022-11-20T17:22:48.529Z,94.61
2022-11-20T17:25:14.903Z,94.47
2022-11-20T17:27:41.188Z,94.51
2022-11-20T17:30:08.214Z,94.70
2022-11-20T17:32:34.517Z,94.63
2022-11-20T17:35:01.554Z,94.59
2022-11-20T17:37:27.848Z,94.69
2022-11-20T17:39:54.234Z,94.32
2022-11-20T17:42:26.598Z,94.45
2022-11-20T17:44:52.922Z,94.36
2022-11-20T17:47:19.273Z,94.38
2022-11-20T17:49:45.658Z,94.34
2022-11-20T17:52:11.953Z,94.38
2022-11-20T17:54:38.294Z,94.33
2022-11-20T17:57:41.416Z,94.32
2022-11-20T18:00:10.128Z,94.41
2022-11-20T18:02:36.430Z,94.15
2022-11-20T18:05:02.852Z,94.11
2022-11-20T18:07:29.410Z,94.24
2022-11-20T18:09:55.727Z,94.00
2022-11-20T18:12:22.027Z,94.15
2022-11-20T18:14:48.348Z,94.15
2022-11-20T18:17:15.949Z,93.97
2022-11-20T18:20:07.190Z,94.11
2022-11-20T18:22:33.608Z,93.97
2022-11-20T18:24:59.911Z,94.05
2022-11-20T18:27:26.200Z,94.07
2022-11-20T18:29:52.703Z,94.08
2022-11-20T18:32:21.517Z,93.97
2022-11-20T18:34:48.192Z,93.93
2022-11-20T18:37:16.318Z,94.02
2022-11-20T18:39:42.829Z,93.95
2022-11-20T18:42:49.630Z,94.08
2022-11-20T18:45:15.966Z,93.98
2022-11-20T18:47:42.334Z,93.79
2022-11-20T18:50:09.006Z,93.75
2022-11-20T18:52:40.671Z,93.88
2022-11-20T18:55:07.932Z,93.90
2022-11-20T18:57:34.370Z,93.82
2022-11-20T19:00:06.388Z,93.80
2022-11-20T19:02:40.534Z,93.67
2022-11-20T19:05:08.945Z,93.79
2022-11-20T19:07:35.364Z,93.76
2022-11-20T19:10:03.984Z,93.77
2022-11-20T19:12:30.954Z,93.69
2022-11-20T19:14:57.419Z,93.79
2022-11-20T19:17:23.761Z,93.54
2022-11-20T19:19:50.342Z,93.48
2022-11-20T19:22:17.023Z,93.66
2022-11-20T19:24:43.316Z,93.60
2022-11-20T19:27:09.630Z,93.78
2022-11-20T19:29:36.007Z,93.63
2022-11-20T19:32:04.303Z,93.60
2022-11-20T19:34:30.741Z,93.58
2022-11-20T19:36:57.077Z,93.65
2022-11-20T19:39:23.696Z,93.69
2022-11-20T19:41:50.119Z,93.63
2022-11-20T19:44:19.362Z,93.68
2022-11-20T19:46:45.701Z,93.39
2022-11-20T19:49:14.234Z,93.52
2022-11-20T19:51:46.053Z,93.57
2022-11-20T19:54:12.589Z,93.60
2022-11-20T19:56:39.027Z,93.83
2022-11-20T19:59:05.653Z,93.59
2022-11-20T20:01:32.379Z,93.41
2022-11-20T20:04:05.164Z,93.52
2022-11-20T20:06:33.818Z,93.47
2022-11-20T20:09:03.875Z,93.72
2022-11-20T20:11:31.699Z,93.45
2022-11-20T20:14:00.954Z,93.59
2022-11-20T20:16:28.618Z,93.51
2022-11-20T20:18:59.172Z,93.46
2022-11-20T20:21:25.624Z,93.33
2022-11-20T20:23:53.950Z,93.45
2022-11-20T20:26:21.474Z,93.39
2022-11-20T20:28:48.044Z,93.42
2022-11-20T20:31:17.237Z,93.41
2022-11-20T20:33:44.130Z,93.28
2022-11-20T20:36:12.599Z,93.26
2022-11-20T20:38:39.252Z,93.22
2022-11-20T20:41:05.773Z,93.34
2022-11-20T20:43:52.234Z,93.23
2022-11-20T20:46:18.673Z,93.15
2022-11-20T20:48:46.328Z,93.07
2022-11-20T20:51:14.518Z,92.91
2022-11-20T20:53:40.838Z,93.18
2022-11-20T20:56:07.397Z,93.10
2022-11-20T20:58:33.698Z,93.20
2022-11-20T21:01:08.382Z,93.27
2022-11-20T21:03:36.141Z,93.15
2022-11-20T21:06:03.890Z,93.23
2022-11-20T21:08:30.247Z,93.02
2022-11-20T21:11:03.528Z,93.60
2022-11-20T21:13:30.643Z,93.29
2022-11-20T21:15:57.105Z,93.34
2022-11-20T21:18:24.394Z,93.21
2022-11-20T21:21:09.886Z,93.32
2022-11-20T21:23:36.851Z,93.37
2022-11-20T21:26:06.469Z,93.31
2022-11-20T21:28:34.521Z,93.42
2022-11-20T21:31:09.367Z,93.13
2022-11-20T21:33:43.323Z,93.15
2022-11-20T21:36:11.638Z,93.57
2022-11-20T21:38:38.027Z,93.53
2022-11-20T21:41:06.781Z,93.20
2022-11-20T21:43:33.114Z,93.43
2022-11-20T21:46:03.713Z,93.40
2022-11-20T21:48:34.830Z,93.16
2022-11-20T21:51:07.017Z,93.13
2022-11-20T21:53:34.292Z,93.34
2022-11-20T21:56:00.938Z,93.01
2022-11-20T21:58:27.590Z,93.29
2022-11-20T22:00:54.014Z,92.91
2022-11-20T22:03:20.409Z,93.25
2022-11-20T22:05:55.443Z,92.88
2022-11-20T22:08:22.800Z,93.20
2022-11-20T22:11:00.588Z,93.20
2022-11-20T22:13:46.202Z,93.01
2022-11-20T22:16:13.553Z,92.95
2022-11-20T22:18:51.117Z,93.17
2022-11-20T22:21:20.034Z,92.92
2022-11-20T22:23:46.925Z,93.01
2022-11-20T22:26:16.186Z,93.05
2022-11-20T22:28:42.985Z,92.82
2022-11-20T22:31:11.856Z,93.09
2022-11-20T22:33:38.842Z,92.86
2022-11-20T22:36:08.310Z,92.85
2022-11-20T22:38:39.326Z,92.66
2022-11-20T22:41:11.406Z,92.94
2022-11-20T22:43:38.540Z,92.99
2022-11-20T22:46:08.303Z,92.89
2022-11-20T22:48:35.764Z,92.98
2022-11-20T22:51:03.298Z,93.06
2022-11-20T22:53:29.600Z,93.05
2022-11-20T22:55:55.966Z,93.04
2022-11-20T22:58:22.442Z,92.95
2022-11-20T23:00:48.770Z,93.01
2022-11-20T23:03:15.212Z,92.92
2022-11-20T23:05:41.519Z,93.06
2022-11-20T23:08:07.807Z,92.97
2022-11-20T23:10:34.155Z,92.90
2022-11-20T23:13:00.498Z,92.91
2022-11-20T23:15:26.786Z,92.97
2022-11-20T23:17:53.338Z,92.92
2022-11-20T23:20:19.649Z,92.72
2022-11-20T23:22:45.940Z,92.85
2022-11-20T23:25:12.321Z,92.56
2022-11-20T23:27:38.609Z,92.26
2022-11-20T23:30:05.327Z,92.65
2022-11-20T23:32:31.638Z,92.67
2022-11-20T23:34:57.921Z,92.55
2022-11-20T23:37:24.217Z,92.44
2022-11-20T23:39:50.513Z,92.33
2022-11-20T23:42:17.090Z,92.34
2022-11-20T23:44:43.411Z,92.67
2022-11-20T23:47:09.729Z,92.52
2022-11-20T23:49:36.026Z,92.62
2022-11-20T23:52:02.573Z,92.79
2022-11-20T23:54:29.225Z,92.75
2022-11-20T23:56:55.618Z,92.63
2022-11-20T23:59:21.909Z,92.78
